Sand Canyon, California
Current Conditions -  °F | °C
As of 12:35 PM on Monday 26 Jan 2015 (Local Time) from KTSP Reporting Station
Few Clouds Few Clouds  
Wind Chill: 59°   Ceiling: Unl
Heat Index: 59°   Visibility: 10mi
Dew Point: 28°   Wind: 18mph
Humidity: 31%   Direction: 110°ESE
Pressure: 30.1"   Gusts: 29mph
Location:  35.1338°N, 118.552°W
Report Text: KTSP 262035Z AUTO 11016G25KT 10SM FEW065 15/M02 A3010 RMK AO2
Loading
Personal Weather Stations






























Interactive Weather Map New forecast layout! Learn more

10-Day Weather Forecast

Advertisements
Track Severe Weather on mobile